sensor_id;sensor_type;location;lat;lon;timestamp;temperature;humidity
3037;DHT22;1528;52.550;13.408;2022-10-22T00:00:16;16.00;59.40
3037;DHT22;1528;52.550;13.408;2022-10-22T00:03:02;15.90;59.30
3037;DHT22;1528;52.550;13.408;2022-10-22T00:05:47;15.90;59.50
3037;DHT22;1528;52.550;13.408;2022-10-22T00:08:33;15.80;59.90
3037;DHT22;1528;52.550;13.408;2022-10-22T00:11:20;15.80;59.80
3037;DHT22;1528;52.550;13.408;2022-10-22T00:14:05;15.90;59.60
3037;DHT22;1528;52.550;13.408;2022-10-22T00:16:51;16.00;59.00
3037;DHT22;1528;52.550;13.408;2022-10-22T00:19:36;16.00;58.90
3037;DHT22;1528;52.550;13.408;2022-10-22T00:22:22;16.00;59.30
3037;DHT22;1528;52.550;13.408;2022-10-22T00:25:08;15.90;59.20
3037;DHT22;1528;52.550;13.408;2022-10-22T00:27:54;15.90;59.30
3037;DHT22;1528;52.550;13.408;2022-10-22T00:30:40;16.00;59.40
3037;DHT22;1528;52.550;13.408;2022-10-22T00:33:27;16.10;59.50
3037;DHT22;1528;52.550;13.408;2022-10-22T00:36:13;16.00;59.00
3037;DHT22;1528;52.550;13.408;2022-10-22T00:38:58;16.00;59.00
3037;DHT22;1528;52.550;13.408;2022-10-22T00:41:45;16.10;58.90
3037;DHT22;1528;52.550;13.408;2022-10-22T00:44:58;15.90;59.10
3037;DHT22;1528;52.550;13.408;2022-10-22T00:47:49;16.00;59.10
3037;DHT22;1528;52.550;13.408;2022-10-22T00:50:40;16.00;59.00
3037;DHT22;1528;52.550;13.408;2022-10-22T00:53:33;16.00;58.90
3037;DHT22;1528;52.550;13.408;2022-10-22T00:56:19;16.00;58.90
3037;DHT22;1528;52.550;13.408;2022-10-22T00:59:05;16.00;58.80
3037;DHT22;1528;52.550;13.408;2022-10-22T01:01:53;15.90;59.30
3037;DHT22;1528;52.550;13.408;2022-10-22T01:04:39;15.90;59.30
3037;DHT22;1528;52.550;13.408;2022-10-22T01:07:25;15.90;59.20
3037;DHT22;1528;52.550;13.408;2022-10-22T01:10:19;15.90;59.20
3037;DHT22;1528;52.550;13.408;2022-10-22T01:13:19;15.90;59.50
3037;DHT22;1528;52.550;13.408;2022-10-22T01:16:10;16.00;59.20
3037;DHT22;1528;52.550;13.408;2022-10-22T01:19:09;15.90;59.00
3037;DHT22;1528;52.550;13.408;2022-10-22T01:22:04;15.90;59.10
3037;DHT22;1528;52.550;13.408;2022-10-22T01:24:56;15.90;59.10
3037;DHT22;1528;52.550;13.408;2022-10-22T01:27:54;15.90;59.30
3037;DHT22;1528;52.550;13.408;2022-10-22T01:30:44;15.90;59.30
3037;DHT22;1528;52.550;13.408;2022-10-22T01:33:31;16.10;59.20
3037;DHT22;1528;52.550;13.408;2022-10-22T01:36:18;15.90;59.00
3037;DHT22;1528;52.550;13.408;2022-10-22T01:39:04;16.00;58.90
3037;DHT22;1528;52.550;13.408;2022-10-22T01:41:54;16.00;59.00
3037;DHT22;1528;52.550;13.408;2022-10-22T01:44:39;15.90;59.20
3037;DHT22;1528;52.550;13.408;2022-10-22T01:47:35;15.90;58.90
3037;DHT22;1528;52.550;13.408;2022-10-22T01:50:37;15.80;59.30
3037;DHT22;1528;52.550;13.408;2022-10-22T01:53:31;15.80;59.30
3037;DHT22;1528;52.550;13.408;2022-10-22T01:56:36;15.80;59.20
3037;DHT22;1528;52.550;13.408;2022-10-22T01:59:33;15.80;59.50
3037;DHT22;1528;52.550;13.408;2022-10-22T02:02:32;15.80;59.40
3037;DHT22;1528;52.550;13.408;2022-10-22T02:05:21;15.80;59.50
3037;DHT22;1528;52.550;13.408;2022-10-22T02:11:53;15.70;59.40
3037;DHT22;1528;52.550;13.408;2022-10-22T02:14:42;15.70;59.50
3037;DHT22;1528;52.550;13.408;2022-10-22T02:17:32;15.60;59.40
3037;DHT22;1528;52.550;13.408;2022-10-22T02:20:22;15.80;59.70
3037;DHT22;1528;52.550;13.408;2022-10-22T02:23:09;15.70;59.10
3037;DHT22;1528;52.550;13.408;2022-10-22T02:25:59;15.70;59.20
3037;DHT22;1528;52.550;13.408;2022-10-22T02:28:52;15.70;59.20
3037;DHT22;1528;52.550;13.408;2022-10-22T02:31:42;15.70;59.10
3037;DHT22;1528;52.550;13.408;2022-10-22T02:34:30;15.70;59.80
3037;DHT22;1528;52.550;13.408;2022-10-22T02:37:17;15.70;59.20
3037;DHT22;1528;52.550;13.408;2022-10-22T02:40:04;15.70;59.60
3037;DHT22;1528;52.550;13.408;2022-10-22T02:42:50;15.70;59.20
3037;DHT22;1528;52.550;13.408;2022-10-22T02:45:36;15.60;59.20
3037;DHT22;1528;52.550;13.408;2022-10-22T02:48:22;15.60;59.40
3037;DHT22;1528;52.550;13.408;2022-10-22T02:51:09;15.50;59.40
3037;DHT22;1528;52.550;13.408;2022-10-22T02:53:54;15.60;59.10
3037;DHT22;1528;52.550;13.408;2022-10-22T02:56:40;15.60;59.20
3037;DHT22;1528;52.550;13.408;2022-10-22T02:59:25;15.50;59.20
3037;DHT22;1528;52.550;13.408;2022-10-22T03:02:11;15.50;59.30
3037;DHT22;1528;52.550;13.408;2022-10-22T03:04:56;15.50;59.00
3037;DHT22;1528;52.550;13.408;2022-10-22T03:07:43;15.50;59.20
3037;DHT22;1528;52.550;13.408;2022-10-22T03:10:29;15.50;59.00
3037;DHT22;1528;52.550;13.408;2022-10-22T03:13:14;15.50;59.00
3037;DHT22;1528;52.550;13.408;2022-10-22T03:16:00;15.50;59.10
3037;DHT22;1528;52.550;13.408;2022-10-22T03:18:46;15.50;59.10
3037;DHT22;1528;52.550;13.408;2022-10-22T03:21:36;15.40;59.40
3037;DHT22;1528;52.550;13.408;2022-10-22T03:24:27;15.40;59.70
3037;DHT22;1528;52.550;13.408;2022-10-22T03:27:15;15.40;59.50
3037;DHT22;1528;52.550;13.408;2022-10-22T03:30:03;15.50;59.90
3037;DHT22;1528;52.550;13.408;2022-10-22T03:32:49;15.50;59.20
3037;DHT22;1528;52.550;13.408;2022-10-22T03:35:41;15.60;59.00
3037;DHT22;1528;52.550;13.408;2022-10-22T03:38:28;15.50;58.80
3037;DHT22;1528;52.550;13.408;2022-10-22T03:41:16;15.40;59.30
3037;DHT22;1528;52.550;13.408;2022-10-22T03:44:02;15.50;59.10
3037;DHT22;1528;52.550;13.408;2022-10-22T03:46:48;15.50;59.00
3037;DHT22;1528;52.550;13.408;2022-10-22T03:49:34;15.50;58.80
3037;DHT22;1528;52.550;13.408;2022-10-22T03:52:19;15.50;58.80
3037;DHT22;1528;52.550;13.408;2022-10-22T03:55:06;15.50;58.70
3037;DHT22;1528;52.550;13.408;2022-10-22T03:57:53;15.50;58.70
3037;DHT22;1528;52.550;13.408;2022-10-22T04:00:39;15.50;58.60
3037;DHT22;1528;52.550;13.408;2022-10-22T04:03:25;15.40;59.00
3037;DHT22;1528;52.550;13.408;2022-10-22T04:06:11;15.40;59.10
3037;DHT22;1528;52.550;13.408;2022-10-22T04:08:58;15.50;59.10
3037;DHT22;1528;52.550;13.408;2022-10-22T04:11:44;15.50;59.60
3037;DHT22;1528;52.550;13.408;2022-10-22T04:14:31;15.50;59.00
3037;DHT22;1528;52.550;13.408;2022-10-22T04:17:16;15.40;59.20
3037;DHT22;1528;52.550;13.408;2022-10-22T04:20:03;15.50;59.20
3037;DHT22;1528;52.550;13.408;2022-10-22T04:22:49;15.50;59.00
3037;DHT22;1528;52.550;13.408;2022-10-22T04:25:35;15.50;58.70
3037;DHT22;1528;52.550;13.408;2022-10-22T04:28:20;15.60;58.60
3037;DHT22;1528;52.550;13.408;2022-10-22T04:31:11;15.50;58.40
3037;DHT22;1528;52.550;13.408;2022-10-22T04:33:58;15.50;58.50
3037;DHT22;1528;52.550;13.408;2022-10-22T04:36:44;15.50;58.80
3037;DHT22;1528;52.550;13.408;2022-10-22T04:39:30;15.50;58.60
3037;DHT22;1528;52.550;13.408;2022-10-22T04:42:15;15.50;58.70
3037;DHT22;1528;52.550;13.408;2022-10-22T04:45:01;15.50;58.60
3037;DHT22;1528;52.550;13.408;2022-10-22T04:47:48;15.50;58.60
3037;DHT22;1528;52.550;13.408;2022-10-22T04:50:34;15.50;58.60
3037;DHT22;1528;52.550;13.408;2022-10-22T04:53:19;15.50;58.50
3037;DHT22;1528;52.550;13.408;2022-10-22T04:56:10;15.50;58.90
3037;DHT22;1528;52.550;13.408;2022-10-22T04:58:58;15.40;58.70
3037;DHT22;1528;52.550;13.408;2022-10-22T05:01:44;15.50;58.60
3037;DHT22;1528;52.550;13.408;2022-10-22T05:04:30;15.40;58.60
3037;DHT22;1528;52.550;13.408;2022-10-22T05:07:16;15.40;59.00
3037;DHT22;1528;52.550;13.408;2022-10-22T05:10:01;15.40;58.80
3037;DHT22;1528;52.550;13.408;2022-10-22T05:12:47;15.30;59.20
3037;DHT22;1528;52.550;13.408;2022-10-22T05:15:33;15.30;58.90
3037;DHT22;1528;52.550;13.408;2022-10-22T05:18:18;15.30;59.00
3037;DHT22;1528;52.550;13.408;2022-10-22T05:21:08;15.30;58.90
3037;DHT22;1528;52.550;13.408;2022-10-22T05:23:55;15.20;59.10
3037;DHT22;1528;52.550;13.408;2022-10-22T05:26:42;15.30;59.70
3037;DHT22;1528;52.550;13.408;2022-10-22T05:29:28;15.30;59.00
3037;DHT22;1528;52.550;13.408;2022-10-22T05:32:13;15.30;58.90
3037;DHT22;1528;52.550;13.408;2022-10-22T05:34:59;15.30;58.90
3037;DHT22;1528;52.550;13.408;2022-10-22T05:37:46;15.20;58.90
3037;DHT22;1528;52.550;13.408;2022-10-22T05:40:32;15.20;58.90
3037;DHT22;1528;52.550;13.408;2022-10-22T05:43:17;15.20;58.90
3037;DHT22;1528;52.550;13.408;2022-10-22T05:46:04;15.20;58.70
3037;DHT22;1528;52.550;13.408;2022-10-22T05:48:51;15.30;58.70
3037;DHT22;1528;52.550;13.408;2022-10-22T05:51:36;15.20;58.60
3037;DHT22;1528;52.550;13.408;2022-10-22T05:54:23;15.30;58.70
3037;DHT22;1528;52.550;13.408;2022-10-22T05:57:09;15.20;58.60
3037;DHT22;1528;52.550;13.408;2022-10-22T05:59:54;15.20;58.70
3037;DHT22;1528;52.550;13.408;2022-10-22T06:02:40;15.10;58.70
3037;DHT22;1528;52.550;13.408;2022-10-22T06:05:25;15.10;58.90
3037;DHT22;1528;52.550;13.408;2022-10-22T06:08:12;15.10;58.90
3037;DHT22;1528;52.550;13.408;2022-10-22T06:11:00;15.10;58.70
3037;DHT22;1528;52.550;13.408;2022-10-22T06:13:46;15.10;58.70
3037;DHT22;1528;52.550;13.408;2022-10-22T06:16:32;15.10;58.80
3037;DHT22;1528;52.550;13.408;2022-10-22T06:19:20;15.10;58.70
3037;DHT22;1528;52.550;13.408;2022-10-22T06:22:05;15.10;58.90
3037;DHT22;1528;52.550;13.408;2022-10-22T06:24:51;15.10;58.70
3037;DHT22;1528;52.550;13.408;2022-10-22T06:27:38;15.20;58.40
3037;DHT22;1528;52.550;13.408;2022-10-22T06:30:23;15.30;58.20
3037;DHT22;1528;52.550;13.408;2022-10-22T06:33:08;15.40;58.10
3037;DHT22;1528;52.550;13.408;2022-10-22T06:35:54;15.40;57.80
3037;DHT22;1528;52.550;13.408;2022-10-22T06:38:40;15.40;57.80
3037;DHT22;1528;52.550;13.408;2022-10-22T06:41:26;15.50;57.40
3037;DHT22;1528;52.550;13.408;2022-10-22T06:44:14;15.40;57.50
3037;DHT22;1528;52.550;13.408;2022-10-22T06:47:00;15.60;57.40
3037;DHT22;1528;52.550;13.408;2022-10-22T06:49:45;15.60;57.20
3037;DHT22;1528;52.550;13.408;2022-10-22T06:52:32;15.50;57.60
3037;DHT22;1528;52.550;13.408;2022-10-22T06:55:18;15.60;57.40
3037;DHT22;1528;52.550;13.408;2022-10-22T06:58:03;15.60;57.10
3037;DHT22;1528;52.550;13.408;2022-10-22T07:00:59;15.70;56.90
3037;DHT22;1528;52.550;13.408;2022-10-22T07:03:45;15.90;57.10
3037;DHT22;1528;52.550;13.408;2022-10-22T07:06:30;15.80;56.90
3037;DHT22;1528;52.550;13.408;2022-10-22T07:09:16;15.80;56.70
3037;DHT22;1528;52.550;13.408;2022-10-22T07:12:02;15.80;56.60
3037;DHT22;1528;52.550;13.408;2022-10-22T07:14:49;15.90;56.60
3037;DHT22;1528;52.550;13.408;2022-10-22T07:17:35;15.80;56.80
3037;DHT22;1528;52.550;13.408;2022-10-22T07:20:21;15.70;56.80
3037;DHT22;1528;52.550;13.408;2022-10-22T07:23:06;15.80;56.90
3037;DHT22;1528;52.550;13.408;2022-10-22T07:25:52;15.80;56.60
3037;DHT22;1528;52.550;13.408;2022-10-22T07:28:38;15.90;56.60
3037;DHT22;1528;52.550;13.408;2022-10-22T07:31:24;15.90;56.60
3037;DHT22;1528;52.550;13.408;2022-10-22T07:34:10;16.10;56.00
3037;DHT22;1528;52.550;13.408;2022-10-22T07:36:56;16.10;56.00
3037;DHT22;1528;52.550;13.408;2022-10-22T07:39:42;16.20;56.00
3037;DHT22;1528;52.550;13.408;2022-10-22T07:42:29;16.10;55.80
3037;DHT22;1528;52.550;13.408;2022-10-22T07:45:15;16.10;56.30
3037;DHT22;1528;52.550;13.408;2022-10-22T07:48:01;16.20;55.60
3037;DHT22;1528;52.550;13.408;2022-10-22T07:50:49;16.60;53.90
3037;DHT22;1528;52.550;13.408;2022-10-22T07:53:35;16.60;53.60
3037;DHT22;1528;52.550;13.408;2022-10-22T07:56:20;16.60;53.70
3037;DHT22;1528;52.550;13.408;2022-10-22T07:59:06;16.60;53.90
3037;DHT22;1528;52.550;13.408;2022-10-22T08:01:51;16.40;54.30
3037;DHT22;1528;52.550;13.408;2022-10-22T08:04:37;16.40;54.60
3037;DHT22;1528;52.550;13.408;2022-10-22T08:07:24;16.50;54.40
3037;DHT22;1528;52.550;13.408;2022-10-22T08:10:11;16.50;54.10
3037;DHT22;1528;52.550;13.408;2022-10-22T08:12:56;16.60;54.30
3037;DHT22;1528;52.550;13.408;2022-10-22T08:15:42;16.60;54.80
3037;DHT22;1528;52.550;13.408;2022-10-22T08:18:29;16.70;54.10
3037;DHT22;1528;52.550;13.408;2022-10-22T08:21:14;16.70;54.30
3037;DHT22;1528;52.550;13.408;2022-10-22T08:24:02;16.70;54.30
3037;DHT22;1528;52.550;13.408;2022-10-22T08:26:47;16.70;54.30
3037;DHT22;1528;52.550;13.408;2022-10-22T08:29:32;16.80;54.30
3037;DHT22;1528;52.550;13.408;2022-10-22T08:32:18;16.90;53.80
3037;DHT22;1528;52.550;13.408;2022-10-22T08:35:04;16.90;52.80
3037;DHT22;1528;52.550;13.408;2022-10-22T08:45:17;16.90;52.50
3037;DHT22;1528;52.550;13.408;2022-10-22T08:48:15;16.70;53.40
3037;DHT22;1528;52.550;13.408;2022-10-22T08:51:04;16.80;53.00
3037;DHT22;1528;52.550;13.408;2022-10-22T08:54:12;16.80;53.20
3037;DHT22;1528;52.550;13.408;2022-10-22T08:57:12;16.80;53.30
3037;DHT22;1528;52.550;13.408;2022-10-22T09:00:05;16.70;53.50
3037;DHT22;1528;52.550;13.408;2022-10-22T09:03:09;16.90;53.40
3037;DHT22;1528;52.550;13.408;2022-10-22T09:06:08;17.00;53.00
3037;DHT22;1528;52.550;13.408;2022-10-22T09:08:56;16.80;53.70
3037;DHT22;1528;52.550;13.408;2022-10-22T09:11:45;16.70;53.60
3037;DHT22;1528;52.550;13.408;2022-10-22T09:14:31;16.70;53.80
3037;DHT22;1528;52.550;13.408;2022-10-22T09:17:22;16.90;53.50
3037;DHT22;1528;52.550;13.408;2022-10-22T09:20:15;16.80;53.40
3037;DHT22;1528;52.550;13.408;2022-10-22T09:23:16;16.90;53.40
3037;DHT22;1528;52.550;13.408;2022-10-22T09:26:12;17.00;53.10
3037;DHT22;1528;52.550;13.408;2022-10-22T09:28:59;16.90;53.00
3037;DHT22;1528;52.550;13.408;2022-10-22T09:31:45;16.90;53.80
3037;DHT22;1528;52.550;13.408;2022-10-22T09:34:31;17.00;53.60
3037;DHT22;1528;52.550;13.408;2022-10-22T09:37:24;17.20;53.20
3037;DHT22;1528;52.550;13.408;2022-10-22T09:40:13;17.00;53.80
3037;DHT22;1528;52.550;13.408;2022-10-22T09:42:59;17.20;53.40
3037;DHT22;1528;52.550;13.408;2022-10-22T09:45:46;17.40;52.40
3037;DHT22;1528;52.550;13.408;2022-10-22T09:48:34;17.40;52.40
3037;DHT22;1528;52.550;13.408;2022-10-22T09:51:22;17.60;51.60
3037;DHT22;1528;52.550;13.408;2022-10-22T09:54:15;17.70;50.70
3037;DHT22;1528;52.550;13.408;2022-10-22T09:57:03;17.80;51.10
3037;DHT22;1528;52.550;13.408;2022-10-22T09:59:50;17.90;50.90
3037;DHT22;1528;52.550;13.408;2022-10-22T10:02:39;17.90;50.40
3037;DHT22;1528;52.550;13.408;2022-10-22T10:05:27;17.90;50.30
3037;DHT22;1528;52.550;13.408;2022-10-22T10:08:15;17.90;50.50
3037;DHT22;1528;52.550;13.408;2022-10-22T10:11:06;17.70;51.10
3037;DHT22;1528;52.550;13.408;2022-10-22T10:14:04;17.50;51.60
3037;DHT22;1528;52.550;13.408;2022-10-22T10:16:56;17.60;51.10
3037;DHT22;1528;52.550;13.408;2022-10-22T10:19:51;17.70;50.90
3037;DHT22;1528;52.550;13.408;2022-10-22T10:22:46;17.60;51.40
3037;DHT22;1528;52.550;13.408;2022-10-22T10:25:47;17.70;51.30
3037;DHT22;1528;52.550;13.408;2022-10-22T10:31:46;17.60;51.80
3037;DHT22;1528;52.550;13.408;2022-10-22T10:34:41;17.70;51.30
3037;DHT22;1528;52.550;13.408;2022-10-22T10:37:29;17.60;51.50
3037;DHT22;1528;52.550;13.408;2022-10-22T10:40:23;17.70;51.40
3037;DHT22;1528;52.550;13.408;2022-10-22T10:43:12;17.80;50.90
3037;DHT22;1528;52.550;13.408;2022-10-22T10:46:04;17.80;51.30
3037;DHT22;1528;52.550;13.408;2022-10-22T10:48:54;17.80;50.80
3037;DHT22;1528;52.550;13.408;2022-10-22T10:51:46;17.80;50.60
3037;DHT22;1528;52.550;13.408;2022-10-22T10:54:43;17.80;50.80
3037;DHT22;1528;52.550;13.408;2022-10-22T10:57:38;18.00;51.00
3037;DHT22;1528;52.550;13.408;2022-10-22T11:00:31;18.00;50.70
3037;DHT22;1528;52.550;13.408;2022-10-22T11:03:38;18.20;50.10
3037;DHT22;1528;52.550;13.408;2022-10-22T11:06:25;18.40;49.20
3037;DHT22;1528;52.550;13.408;2022-10-22T11:09:23;18.60;48.50
3037;DHT22;1528;52.550;13.408;2022-10-22T11:12:14;18.80;48.40
3037;DHT22;1528;52.550;13.408;2022-10-22T11:15:06;19.00;48.10
3037;DHT22;1528;52.550;13.408;2022-10-22T11:17:54;18.90;47.60
3037;DHT22;1528;52.550;13.408;2022-10-22T11:20:52;18.60;47.90
3037;DHT22;1528;52.550;13.408;2022-10-22T11:23:43;18.70;48.10
3037;DHT22;1528;52.550;13.408;2022-10-22T11:26:36;18.70;48.50
3037;DHT22;1528;52.550;13.408;2022-10-22T11:29:25;19.10;48.10
3037;DHT22;1528;52.550;13.408;2022-10-22T11:32:18;19.40;46.80
3037;DHT22;1528;52.550;13.408;2022-10-22T11:35:07;19.50;46.40
3037;DHT22;1528;52.550;13.408;2022-10-22T11:37:55;19.50;45.50
3037;DHT22;1528;52.550;13.408;2022-10-22T11:40:49;19.50;45.70
3037;DHT22;1528;52.550;13.408;2022-10-22T11:43:56;19.30;45.60
3037;DHT22;1528;52.550;13.408;2022-10-22T11:46:44;19.10;46.60
3037;DHT22;1528;52.550;13.408;2022-10-22T11:49:41;19.10;46.70
3037;DHT22;1528;52.550;13.408;2022-10-22T11:52:37;19.00;47.00
3037;DHT22;1528;52.550;13.408;2022-10-22T11:55:32;19.00;47.10
3037;DHT22;1528;52.550;13.408;2022-10-22T11:58:34;19.20;46.90
3037;DHT22;1528;52.550;13.408;2022-10-22T12:01:27;19.00;47.00
3037;DHT22;1528;52.550;13.408;2022-10-22T12:04:18;19.00;47.30
3037;DHT22;1528;52.550;13.408;2022-10-22T12:07:31;19.10;46.70
3037;DHT22;1528;52.550;13.408;2022-10-22T12:10:18;19.40;46.30
3037;DHT22;1528;52.550;13.408;2022-10-22T12:13:11;19.60;45.30
3037;DHT22;1528;52.550;13.408;2022-10-22T12:16:00;20.00;44.70
3037;DHT22;1528;52.550;13.408;2022-10-22T12:18:46;20.20;43.80
3037;DHT22;1528;52.550;13.408;2022-10-22T12:21:33;20.20;43.60
3037;DHT22;1528;52.550;13.408;2022-10-22T12:24:21;20.20;43.20
3037;DHT22;1528;52.550;13.408;2022-10-22T12:27:18;20.20;42.80
3037;DHT22;1528;52.550;13.408;2022-10-22T12:30:16;20.20;43.00
3037;DHT22;1528;52.550;13.408;2022-10-22T12:33:04;19.90;43.80
3037;DHT22;1528;52.550;13.408;2022-10-22T12:35:50;20.00;43.70
3037;DHT22;1528;52.550;13.408;2022-10-22T12:38:44;19.80;44.00
3037;DHT22;1528;52.550;13.408;2022-10-22T12:41:32;20.10;43.00
3037;DHT22;1528;52.550;13.408;2022-10-22T12:44:18;20.20;42.80
3037;DHT22;1528;52.550;13.408;2022-10-22T12:47:06;20.20;42.30
3037;DHT22;1528;52.550;13.408;2022-10-22T12:49:52;20.30;42.10
3037;DHT22;1528;52.550;13.408;2022-10-22T12:52:38;20.40;41.60
3037;DHT22;1528;52.550;13.408;2022-10-22T12:55:25;20.20;42.10
3037;DHT22;1528;52.550;13.408;2022-10-22T12:58:12;20.00;42.40
3037;DHT22;1528;52.550;13.408;2022-10-22T13:01:00;20.00;42.60
3037;DHT22;1528;52.550;13.408;2022-10-22T13:03:49;20.00;41.50
3037;DHT22;1528;52.550;13.408;2022-10-22T13:06:35;19.90;41.90
3037;DHT22;1528;52.550;13.408;2022-10-22T13:09:23;19.90;41.80
3037;DHT22;1528;52.550;13.408;2022-10-22T13:12:09;20.00;41.00
3037;DHT22;1528;52.550;13.408;2022-10-22T13:15:19;20.00;40.50
3037;DHT22;1528;52.550;13.408;2022-10-22T13:18:14;19.80;41.10
3037;DHT22;1528;52.550;13.408;2022-10-22T13:21:02;19.70;40.60
3037;DHT22;1528;52.550;13.408;2022-10-22T13:23:54;19.60;40.80
3037;DHT22;1528;52.550;13.408;2022-10-22T13:26:40;19.60;41.00
3037;DHT22;1528;52.550;13.408;2022-10-22T13:29:26;19.60;41.20
3037;DHT22;1528;52.550;13.408;2022-10-22T13:32:25;19.50;41.30
3037;DHT22;1528;52.550;13.408;2022-10-22T13:35:12;19.60;41.10
3037;DHT22;1528;52.550;13.408;2022-10-22T13:38:01;19.60;40.90
3037;DHT22;1528;52.550;13.408;2022-10-22T13:40:47;19.60;40.60
3037;DHT22;1528;52.550;13.408;2022-10-22T13:43:32;19.70;40.30
3037;DHT22;1528;52.550;13.408;2022-10-22T13:46:18;19.80;39.30
3037;DHT22;1528;52.550;13.408;2022-10-22T13:49:04;19.90;38.90
3037;DHT22;1528;52.550;13.408;2022-10-22T13:51:49;20.10;38.60
3037;DHT22;1528;52.550;13.408;2022-10-22T13:54:37;20.20;38.10
3037;DHT22;1528;52.550;13.408;2022-10-22T13:57:23;20.20;38.70
3037;DHT22;1528;52.550;13.408;2022-10-22T14:00:12;20.10;39.10
3037;DHT22;1528;52.550;13.408;2022-10-22T14:02:58;20.20;39.20
3037;DHT22;1528;52.550;13.408;2022-10-22T14:05:44;20.30;39.20
3037;DHT22;1528;52.550;13.408;2022-10-22T14:08:30;20.40;38.20
3037;DHT22;1528;52.550;13.408;2022-10-22T14:11:17;20.40;37.80
3037;DHT22;1528;52.550;13.408;2022-10-22T14:14:03;20.30;38.30
3037;DHT22;1528;52.550;13.408;2022-10-22T14:16:51;20.40;38.00
3037;DHT22;1528;52.550;13.408;2022-10-22T14:19:37;20.30;38.30
3037;DHT22;1528;52.550;13.408;2022-10-22T14:22:26;20.30;37.90
3037;DHT22;1528;52.550;13.408;2022-10-22T14:25:13;20.40;37.80
3037;DHT22;1528;52.550;13.408;2022-10-22T14:28:01;20.20;37.80
3037;DHT22;1528;52.550;13.408;2022-10-22T14:30:46;20.30;38.00
3037;DHT22;1528;52.550;13.408;2022-10-22T14:33:32;20.20;37.60
3037;DHT22;1528;52.550;13.408;2022-10-22T14:36:18;20.20;37.80
3037;DHT22;1528;52.550;13.408;2022-10-22T14:39:03;20.10;38.00
3037;DHT22;1528;52.550;13.408;2022-10-22T14:41:49;20.10;37.90
3037;DHT22;1528;52.550;13.408;2022-10-22T14:44:36;20.10;38.10
3037;DHT22;1528;52.550;13.408;2022-10-22T14:47:21;20.10;38.30
3037;DHT22;1528;52.550;13.408;2022-10-22T14:50:07;20.00;38.70
3037;DHT22;1528;52.550;13.408;2022-10-22T14:52:53;19.90;38.60
3037;DHT22;1528;52.550;13.408;2022-10-22T14:55:41;20.00;38.10
3037;DHT22;1528;52.550;13.408;2022-10-22T14:58:27;19.90;38.40
3037;DHT22;1528;52.550;13.408;2022-10-22T15:01:14;19.90;38.40
3037;DHT22;1528;52.550;13.408;2022-10-22T15:03:59;19.90;38.40
3037;DHT22;1528;52.550;13.408;2022-10-22T15:06:45;19.90;38.40
3037;DHT22;1528;52.550;13.408;2022-10-22T15:09:30;19.80;38.60
3037;DHT22;1528;52.550;13.408;2022-10-22T15:12:16;19.80;38.90
3037;DHT22;1528;52.550;13.408;2022-10-22T15:15:04;19.90;38.70
3037;DHT22;1528;52.550;13.408;2022-10-22T15:17:51;19.90;38.60
3037;DHT22;1528;52.550;13.408;2022-10-22T15:20:36;19.80;38.60
3037;DHT22;1528;52.550;13.408;2022-10-22T15:23:22;19.70;38.80
3037;DHT22;1528;52.550;13.408;2022-10-22T15:26:08;19.60;38.70
3037;DHT22;1528;52.550;13.408;2022-10-22T15:28:53;19.70;38.80
3037;DHT22;1528;52.550;13.408;2022-10-22T15:31:47;19.60;38.70
3037;DHT22;1528;52.550;13.408;2022-10-22T15:34:35;19.60;38.70
3037;DHT22;1528;52.550;13.408;2022-10-22T15:37:21;19.40;38.70
3037;DHT22;1528;52.550;13.408;2022-10-22T15:40:07;19.60;38.80
3037;DHT22;1528;52.550;13.408;2022-10-22T15:42:52;19.50;39.30
3037;DHT22;1528;52.550;13.408;2022-10-22T15:45:39;19.40;39.50
3037;DHT22;1528;52.550;13.408;2022-10-22T15:48:24;19.30;39.80
3037;DHT22;1528;52.550;13.408;2022-10-22T15:51:13;19.30;39.50
3037;DHT22;1528;52.550;13.408;2022-10-22T15:53:59;19.20;40.00
3037;DHT22;1528;52.550;13.408;2022-10-22T15:56:45;19.00;40.60
3037;DHT22;1528;52.550;13.408;2022-10-22T15:59:30;18.90;40.70
3037;DHT22;1528;52.550;13.408;2022-10-22T16:02:16;18.90;41.20
3037;DHT22;1528;52.550;13.408;2022-10-22T16:05:01;18.90;41.40
3037;DHT22;1528;52.550;13.408;2022-10-22T16:07:48;18.70;41.60
3037;DHT22;1528;52.550;13.408;2022-10-22T16:10:34;18.60;41.90
3037;DHT22;1528;52.550;13.408;2022-10-22T16:13:20;18.50;42.10
3037;DHT22;1528;52.550;13.408;2022-10-22T16:16:07;18.40;42.40
3037;DHT22;1528;52.550;13.408;2022-10-22T16:18:53;18.40;42.30
3037;DHT22;1528;52.550;13.408;2022-10-22T16:21:39;18.40;42.40
3037;DHT22;1528;52.550;13.408;2022-10-22T16:24:26;18.20;42.90
3037;DHT22;1528;52.550;13.408;2022-10-22T16:27:11;18.30;43.00
3037;DHT22;1528;52.550;13.408;2022-10-22T16:29:57;18.20;42.80
3037;DHT22;1528;52.550;13.408;2022-10-22T16:32:43;18.20;42.90
3037;DHT22;1528;52.550;13.408;2022-10-22T16:35:29;18.10;43.30
3037;DHT22;1528;52.550;13.408;2022-10-22T16:38:14;18.00;43.50
3037;DHT22;1528;52.550;13.408;2022-10-22T16:41:07;18.00;43.60
3037;DHT22;1528;52.550;13.408;2022-10-22T16:43:54;17.90;43.60
3037;DHT22;1528;52.550;13.408;2022-10-22T16:46:39;17.90;43.80
3037;DHT22;1528;52.550;13.408;2022-10-22T16:49:25;17.80;43.90
3037;DHT22;1528;52.550;13.408;2022-10-22T16:52:10;17.80;44.10
3037;DHT22;1528;52.550;13.408;2022-10-22T16:54:56;17.70;44.00
3037;DHT22;1528;52.550;13.408;2022-10-22T16:57:50;17.60;44.30
3037;DHT22;1528;52.550;13.408;2022-10-22T17:00:36;17.60;44.60
3037;DHT22;1528;52.550;13.408;2022-10-22T17:03:22;17.60;44.50
3037;DHT22;1528;52.550;13.408;2022-10-22T17:06:08;17.60;44.60
3037;DHT22;1528;52.550;13.408;2022-10-22T17:08:55;17.60;44.70
3037;DHT22;1528;52.550;13.408;2022-10-22T17:11:41;17.60;44.40
3037;DHT22;1528;52.550;13.408;2022-10-22T17:14:28;17.50;44.40
3037;DHT22;1528;52.550;13.408;2022-10-22T17:17:15;17.40;44.70
3037;DHT22;1528;52.550;13.408;2022-10-22T17:20:01;17.50;44.90
3037;DHT22;1528;52.550;13.408;2022-10-22T17:22:46;17.60;44.90
3037;DHT22;1528;52.550;13.408;2022-10-22T17:25:35;17.70;45.00
3037;DHT22;1528;52.550;13.408;2022-10-22T17:28:25;17.70;44.60
3037;DHT22;1528;52.550;13.408;2022-10-22T17:31:16;17.70;44.60
3037;DHT22;1528;52.550;13.408;2022-10-22T17:34:03;17.70;44.40
3037;DHT22;1528;52.550;13.408;2022-10-22T17:36:49;17.90;44.10
3037;DHT22;1528;52.550;13.408;2022-10-22T17:39:34;17.80;44.20
3037;DHT22;1528;52.550;13.408;2022-10-22T17:42:20;17.70;44.60
3037;DHT22;1528;52.550;13.408;2022-10-22T17:45:06;17.60;44.70
3037;DHT22;1528;52.550;13.408;2022-10-22T17:47:53;17.60;44.70
3037;DHT22;1528;52.550;13.408;2022-10-22T17:50:40;17.60;45.00
3037;DHT22;1528;52.550;13.408;2022-10-22T17:53:26;17.60;45.00
3037;DHT22;1528;52.550;13.408;2022-10-22T17:56:13;17.40;45.80
3037;DHT22;1528;52.550;13.408;2022-10-22T17:58:58;17.40;45.30
3037;DHT22;1528;52.550;13.408;2022-10-22T18:01:44;17.40;45.30
3037;DHT22;1528;52.550;13.408;2022-10-22T18:04:33;17.60;44.90
3037;DHT22;1528;52.550;13.408;2022-10-22T18:07:18;17.70;45.00
3037;DHT22;1528;52.550;13.408;2022-10-22T18:10:05;17.80;44.10
3037;DHT22;1528;52.550;13.408;2022-10-22T18:12:51;17.80;44.10